aviador You're here:

KLFI Decoded Metar

HAMPTON in VA, USA
Report Time2017-12-16 23:56:00
UTC Time2017-12-17 00:32:07
Flight Rules vfr VFR
Wind220° at 04 kt
W.Decomp.*RWY 26: 3.5 kt HW 2 kt LCW
W.Rank220° ranks 2
Current wind is below 220° avg. (8.9)
Visibility9999 m
Phenomena:N/A
Clouds:N/A
Expected CloudBase > 3,200 ft AGL from Temp-Dew spread
CeilingNone
Temp05°C (ISA -10)
Dew Point-3°C (57% RH)
AAT1.2°C
QNH1023 hPa
Density Alt-1,467 ft
Elevation10 ft
Report Wrong Elevation
Raw Report
KLFI 162356Z AUTO 22004KT 10SM CLR 05/M03 A3021 RMK AO2 SLP237
T00461032 10082 20046 52016=

Extra information for KLFI:More info

Metar Taf Metar & Taf Last 4 Metars F.Rules Stats Wind Profile Meteogram Temp Stats Airport Information Weather charts Add Link Nearby VenuesMetar ALERT Operation Metar Decoded Social comments

AIRNAV info for KLFI